Ocean Navigator — WSC2552 — position and weather

sailwx.info

Track history (hours):
 
Tides and Currents Weather Stations Pressure Air Temp Water Temp Dewpoint Dewpoint Depression Visibility Wind Speed Wind Dir Waves Ship Positions

Ocean Navigator

Owner: OCEAN NAVIGATOR INC, SEATTLE, WA. More information available from US FCC via Universal Licensing System and Coast Guard Vessel Documentation Center.

Last reported at 2017-Nov-17 23:33 UTC. Time now 2017-Nov-18 08:51 UTC.
Position N 47°34' W 122°21'.

Type: Tow > 200 m length. MMSI: 366358000.

Date/timePositionNaut miles runAvg speedWind from/ knotsBaromVisibWave heightAir tempDewpointWater temp
2017-Nov-17 23:33N 47°34' W 122°21'0 0.1
2017-Nov-17 23:31N 47°34' W 122°21'1 1.7
2017-Nov-17 23:01N 47°33' W 122°21'0 0.0
2017-Nov-17 22:30N 47°33' W 122°21'1 1.8
2017-Nov-17 22:01N 47°34' W 122°21'0 0.0
2017-Nov-17 21:30N 47°34' W 122°21'0 0.0
2017-Nov-17 21:00N 47°34' W 122°21'1 2.4
2017-Nov-17 20:30N 47°33' W 122°20'2 3.7
2017-Nov-17 20:00N 47°35' W 122°22'1 1.7
2017-Nov-17 19:30N 47°34' W 122°21'1 2.5
2017-Nov-17 19:00N 47°35' W 122°22'2 3.7
2017-Nov-17 18:31N 47°33' W 122°21'0 0.3
2017-Nov-17 18:00N 47°33' W 122°21'2 4.6
2017-Nov-17 17:30N 47°36' W 122°22'0 0.1
2017-Nov-17 17:00N 47°36' W 122°21'2 3.0
2017-Nov-17 16:29N 47°34' W 122°21'  
2017-Nov-14 19:13N 47°34' W 122°21'1 4.2
2017-Nov-14 19:00N 47°33' W 122°21'0 0.8
2017-Nov-14 18:30N 47°33' W 122°20'2 4.5
2017-Nov-14 18:00N 47°35' W 122°22'1 2.3
2017-Nov-14 17:30N 47°36' W 122°22'0 0.5
2017-Nov-14 17:00N 47°36' W 122°22'2 3.6
2017-Nov-14 16:30N 47°37' W 122°25'4 8.6
2017-Nov-14 16:00N 47°40' W 122°28'5 9.4
2017-Nov-14 15:30N 47°45' W 122°27'510.1
2017-Nov-14 15:00N 47°50' W 122°28'5 9.9
2017-Nov-14 14:30N 47°55' W 122°30'5 8.7
2017-Nov-14 13:55N 47°58' W 122°36'23 8.2
2017-Nov-14 11:10N 48°19' W 122°47'310.3
2017-Nov-14 10:54N 48°22' W 122°46'410.2
2017-Nov-14 10:30N 48°26' W 122°45'510.2
2017-Nov-14 10:00N 48°31' W 122°45'5 9.6
2017-Nov-14 09:30N 48°36' W 122°45'5 9.5
2017-Nov-14 09:00N 48°41' W 122°44'5 9.7
2017-Nov-14 08:30N 48°45' W 122°47'710.8
2017-Nov-14 07:54N 48°49' W 122°55'611.4
2017-Nov-14 07:20N 48°52' W 123°04'511.1
2017-Nov-14 06:56N 48°55' W 123°09'510.6
2017-Nov-14 06:28N 48°58' W 123°14'611.3
2017-Nov-14 05:59N 49°02' W 123°21'510.2
2017-Nov-14 05:30N 49°06' W 123°24'510.7
2017-Nov-14 05:00N 49°12' W 123°22'510.5
2017-Nov-14 04:30N 49°17' W 123°21'5 9.6
2017-Nov-14 04:00N 49°19' W 123°14'5 9.5
2017-Nov-14 03:30N 49°18' W 123°07'1 1.1
2017-Nov-14 03:00N 49°19' W 123°06'0 0.8
2017-Nov-14 02:31N 49°18' W 123°07'1 2.5
2017-Nov-14 02:00N 49°19' W 123°08'3 6.6
2017-Nov-14 01:30N 49°18' W 123°13'3 6.7
2017-Nov-14 01:00N 49°17' W 123°18'4 7.3
2017-Nov-14 00:30N 49°13' W 123°19'3 6.4
2017-Nov-13 23:59N 49°10' W 123°20'4 6.5
2017-Nov-13 23:21N 49°06' W 123°21'3 9.1
2017-Nov-13 22:58N 49°03' W 123°18'810.2
2017-Nov-13 22:10N 48°57' W 123°09'210.5
2017-Nov-13 22:00N 48°56' W 123°07'125 5.2
2017-Nov-12 21:56N 47°05' W 124°33'510.2
2017-Nov-12 21:28N 47°00' W 124°32'510.0
2017-Nov-12 20:56N 46°55' W 124°30'410.2
2017-Nov-12 20:30N 46°51' W 124°29'510.1
2017-Nov-12 20:00N 46°46' W 124°28'510.0
2017-Nov-12 19:31N 46°41' W 124°26'510.2
2017-Nov-12 19:00N 46°36' W 124°24'510.2
2017-Nov-12 18:30N 46°31' W 124°22'510.4
2017-Nov-12 18:00N 46°26' W 124°20'510.5
2017-Nov-12 17:30N 46°21' W 124°17'510.4
2017-Nov-12 17:00N 46°16' W 124°15'4 8.8
2017-Nov-12 16:31N 46°13' W 124°11'3 6.9
2017-Nov-12 16:00N 46°14' W 124°07'3 6.4
2017-Nov-12 15:30N 46°15' W 124°02'4 7.9
2017-Nov-12 15:00N 46°13' W 123°58'4 7.8
2017-Nov-12 14:30N 46°12' W 123°53'2 4.9
2017-Nov-12 14:01N 46°12' W 123°49'0 0.1
2017-Nov-12 13:31N 46°12' W 123°49'611.1
2017-Nov-12 13:00N 46°13' W 123°57'2 3.8
2017-Nov-12 12:31N 46°14' W 123°59'2 4.6
2017-Nov-12 12:00N 46°15' W 124°02'1 2.9
2017-Nov-12 11:30N 46°15' W 124°04'2 4.8
2017-Nov-12 11:00N 46°14' W 124°07'1 1.2
2017-Nov-12 10:31N 46°14' W 124°07'2 4.3
2017-Nov-12 10:00N 46°12' W 124°10'2 4.4
2017-Nov-12 09:30N 46°12' W 124°13'3 5.2
2017-Nov-12 09:00N 46°14' W 124°16'2 4.9
2017-Nov-12 08:30N 46°16' W 124°17'3 5.0
2017-Nov-12 07:56N 46°19' W 124°19'2 5.0
2017-Nov-12 07:30N 46°21' W 124°19'2 4.8
2017-Nov-12 07:00N 46°23' W 124°20'2 4.7
2017-Nov-12 06:30N 46°25' W 124°21'2 4.8
2017-Nov-12 06:00N 46°28' W 124°22'3 5.0
2017-Nov-12 05:30N 46°30' W 124°23'3 5.1
2017-Nov-12 05:00N 46°33' W 124°23'3 5.4
2017-Nov-12 04:30N 46°35' W 124°24'3 5.3
2017-Nov-12 04:00N 46°38' W 124°25'3 5.2
2017-Nov-12 03:30N 46°40' W 124°25'3 5.3
2017-Nov-12 03:00N 46°43' W 124°26'3 5.4
2017-Nov-12 02:30N 46°46' W 124°27'3 5.4
2017-Nov-12 02:00N 46°48' W 124°28'3 5.4
2017-Nov-12 01:30N 46°51' W 124°29'3 5.1
2017-Nov-12 01:00N 46°53' W 124°30'3 5.1
2017-Nov-12 00:30N 46°56' W 124°31'3 5.1
2017-Nov-12 00:00N 46°58' W 124°32'68 6.3
2017-Nov-11 13:06N 48°05' W 124°56'1 7.0
2017-Nov-11 13:00N 48°05' W 124°56'4 6.9
2017-Nov-11 12:21N 48°10' W 124°58'3 7.0
2017-Nov-11 11:59N 48°12' W 124°58'3 6.9
2017-Nov-11 11:29N 48°16' W 124°57'4 6.8
2017-Nov-11 10:58N 48°19' W 124°56'3 6.6
2017-Nov-11 10:30N 48°22' W 124°54'4 7.0
2017-Nov-11 10:00N 48°25' W 124°51'4 8.0
2017-Nov-11 09:30N 48°27' W 124°46'4 8.6
2017-Nov-11 09:00N 48°26' W 124°39'4 8.7
2017-Nov-11 08:30N 48°24' W 124°33'4 8.3
2017-Nov-11 08:00N 48°22' W 124°28'4 7.7
2017-Nov-11 07:29N 48°20' W 124°22'4 7.2
2017-Nov-11 06:59N 48°18' W 124°18'4 7.3
2017-Nov-11 06:30N 48°17' W 124°13'4 8.0
2017-Nov-11 06:00N 48°15' W 124°07'4 7.8
2017-Nov-11 05:30N 48°14' W 124°02'3 6.9
2017-Nov-11 05:00N 48°12' W 123°57'3 6.5
2017-Nov-11 04:30N 48°12' W 123°52'4 7.6
2017-Nov-11 04:00N 48°12' W 123°47'4 8.1
2017-Nov-11 03:30N 48°12' W 123°41'4 8.3
2017-Nov-11 03:00N 48°12' W 123°35'4 8.0
2017-Nov-11 02:30N 48°11' W 123°28'4 8.0
2017-Nov-11 02:00N 48°09' W 123°24'1 2.8
2017-Nov-11 01:30N 48°08' W 123°25'2 4.2
2017-Nov-11 01:00N 48°09' W 123°23'3 5.4
2017-Nov-11 00:30N 48°12' W 123°21'4 7.9
2017-Nov-11 00:00N 48°15' W 123°19'4 8.3
2017-Nov-10 23:30N 48°19' W 123°16'5 9.7
2017-Nov-10 23:00N 48°23' W 123°12'5 9.9
2017-Nov-10 22:30N 48°28' W 123°13'4 7.7
2017-Nov-10 22:00N 48°32' W 123°13'4 8.9
2017-Nov-10 21:31N 48°36' W 123°14'5 8.9
2017-Nov-10 20:59N 48°41' W 123°16'3 6.7
2017-Nov-10 20:30N 48°43' W 123°12'4 8.1
2017-Nov-10 20:00N 48°45' W 123°07'7 5.7
2017-Nov-10 18:51N 48°51' W 123°04'3 8.5
2017-Nov-10 18:30N 48°54' W 123°07'4 7.5
2017-Nov-10 18:00N 48°56' W 123°12'4 7.5
2017-Nov-10 17:28N 48°59' W 123°16'4 7.4
2017-Nov-10 17:00N 49°01' W 123°20'4 7.5
2017-Nov-10 16:29N 49°04' W 123°24'4 7.5
2017-Nov-10 15:58N 49°06' W 123°28'4 7.2
2017-Nov-10 15:25N 49°09' W 123°32'3 6.9
2017-Nov-10 15:00N 49°12' W 123°35'5 6.9
2017-Nov-10 14:16N 49°15' W 123°41'4 7.3
2017-Nov-10 13:45N 49°18' W 123°45'27 7.5
2017-Nov-10 10:12N 49°33' W 124°19'3 7.5
2017-Nov-10 09:45N 49°34' W 124°23'2 7.5
2017-Nov-10 09:30N 49°35' W 124°26'4 7.4
2017-Nov-10 09:00N 49°38' W 124°30'4 7.3
2017-Nov-10 08:29N 49°41' W 124°34'1 0.2
2017-Nov-10 01:24N 49°42' W 124°34'0 0.4
2017-Nov-10 00:57N 49°42' W 124°34'1 1.5
2017-Nov-10 00:27N 49°41' W 124°35'2 4.3
2017-Nov-10 00:00N 49°42' W 124°38'2 3.5
2017-Nov-09 23:29N 49°40' W 124°36'2 4.4
2017-Nov-09 23:00N 49°39' W 124°34'3 4.6
2017-Nov-09 22:27N 49°38' W 124°30'2 4.3
2017-Nov-09 22:00N 49°36' W 124°28'45 8.0
2017-Nov-09 16:21N 49°11' W 123°30'4 9.9
2017-Nov-09 15:58N 49°08' W 123°26'510.4
2017-Nov-09 15:30N 49°05' W 123°21'810.9
2017-Nov-09 14:46N 48°59' W 123°12'311.1
2017-Nov-09 14:30N 48°57' W 123°09'610.9
2017-Nov-09 14:00N 48°53' W 123°03'610.8
2017-Nov-09 13:24N 48°49' W 122°55'710.6
2017-Nov-09 12:43N 48°45' W 122°46'211.1
2017-Nov-09 12:30N 48°43' W 122°44'5 9.6
2017-Nov-09 12:00N 48°39' W 122°44'510.1
2017-Nov-09 11:30N 48°34' W 122°45'5 9.2
2017-Nov-09 10:59N 48°29' W 122°44'4 8.9
2017-Nov-09 10:30N 48°25' W 122°44'11 8.6
2017-Nov-09 09:12N 48°14' W 122°49'1311.9
2017-Nov-09 08:04N 48°03' W 122°38'113.7
2017-Nov-09 07:58N 48°01' W 122°37'612.8
2017-Nov-09 07:30N 47°57' W 122°32'611.2
2017-Nov-09 07:00N 47°52' W 122°28'611.3
2017-Nov-09 06:30N 47°46' W 122°26'510.9
2017-Nov-09 06:00N 47°41' W 122°27'5 9.7
2017-Nov-09 05:30N 47°37' W 122°23'2 3.1
2017-Nov-09 05:00N 47°35' W 122°22'0 0.9
2017-Nov-09 04:30N 47°35' W 122°22'1 2.1
2017-Nov-09 04:00N 47°34' W 122°21'1 1.3
2017-Nov-09 03:30N 47°35' W 122°22'2 4.2
2017-Nov-09 03:00N 47°36' W 122°23'3 6.4
2017-Nov-09 02:30N 47°38' W 122°27'3 5.6
2017-Nov-09 02:00N 47°41' W 122°28'3 6.1
2017-Nov-09 01:30N 47°44' W 122°27'3 6.2
2017-Nov-09 01:00N 47°47' W 122°27'3 6.6
2017-Nov-09 00:30N 47°50' W 122°28'3 6.7
2017-Nov-09 00:00N 47°54' W 122°30'3 6.6
2017-Nov-08 23:31N 47°56' W 122°32'3 6.3
2017-Nov-08 22:58N 47°59' W 122°36'24 5.1
2017-Nov-08 18:20N 48°22' W 122°46'2 6.8
2017-Nov-08 17:59N 48°24' W 122°45'3 6.6
2017-Nov-08 17:30N 48°27' W 122°45'3 5.6
2017-Nov-08 17:00N 48°30' W 122°44'2 5.0
2017-Nov-08 16:30N 48°32' W 122°45'2 4.2
2017-Nov-08 16:01N 48°34' W 122°45'2 3.1
2017-Nov-08 15:30N 48°36' W 122°45'1 2.0
2017-Nov-08 15:00N 48°37' W 122°45'1 2.3
2017-Nov-08 14:30N 48°38' W 122°44'2 3.3
2017-Nov-08 14:00N 48°39' W 122°44'2 3.4
2017-Nov-08 13:30N 48°41' W 122°44'2 3.9
2017-Nov-08 13:00N 48°43' W 122°45'11 5.8
2017-Nov-08 11:02N 48°50' W 122°59'0 5.5
2017-Nov-08 10:58N 48°50' W 122°59'4 6.1
2017-Nov-08 10:15N 48°53' W 123°05'2 5.9
2017-Nov-08 09:57N 48°54' W 123°07'3 6.4
2017-Nov-08 09:29N 48°56' W 123°10'3 6.8
2017-Nov-08 08:59N 48°58' W 123°14'4 7.1
2017-Nov-08 08:29N 49°00' W 123°18'4 7.1
2017-Nov-08 07:58N 49°03' W 123°23'3 6.8
2017-Nov-08 07:30N 49°05' W 123°26'3 6.8
2017-Nov-08 07:00N 49°07' W 123°30'3 6.6
2017-Nov-08 06:29N 49°10' W 123°33'5 6.6
2017-Nov-08 05:42N 49°14' W 123°38'19 6.5
2017-Nov-08 02:53N 49°25' W 124°00'14 6.1
2017-Nov-08 00:31N 49°33' W 124°19'0 6.2
2017-Nov-08 00:29N 49°33' W 124°19'4 6.5
2017-Nov-07 23:51N 49°35' W 124°25'  
Track history (hours):
 
Tides and Currents Weather Stations Pressure Air Temp Water Temp Dewpoint Dewpoint Depression Visibility Wind Speed Wind Dir Waves Ship Positions

Ocean Navigator

Owner: OCEAN NAVIGATOR INC, SEATTLE, WA. More information available from US FCC via Universal Licensing System and Coast Guard Vessel Documentation Center.

Last reported at 2017-Nov-17 23:33 UTC. Time now 2017-Nov-18 08:51 UTC.
Position N 47°34' W 122°21'.

Type: Tow > 200 m length. MMSI: 366358000.

Date/timePositionNaut miles runAvg speedWind from/ knotsBaromVisibWave heightAir tempDewpointWater temp
2017-Nov-17 23:33N 47°34' W 122°21'0 0.1
2017-Nov-17 23:31N 47°34' W 122°21'1 1.7
2017-Nov-17 23:01N 47°33' W 122°21'0 0.0
2017-Nov-17 22:30N 47°33' W 122°21'1 1.8
2017-Nov-17 22:01N 47°34' W 122°21'0 0.0
2017-Nov-17 21:30N 47°34' W 122°21'0 0.0
2017-Nov-17 21:00N 47°34' W 122°21'1 2.4
2017-Nov-17 20:30N 47°33' W 122°20'2 3.7
2017-Nov-17 20:00N 47°35' W 122°22'1 1.7
2017-Nov-17 19:30N 47°34' W 122°21'1 2.5
2017-Nov-17 19:00N 47°35' W 122°22'2 3.7
2017-Nov-17 18:31N 47°33' W 122°21'0 0.3
2017-Nov-17 18:00N 47°33' W 122°21'2 4.6
2017-Nov-17 17:30N 47°36' W 122°22'0 0.1
2017-Nov-17 17:00N 47°36' W 122°21'2 3.0
2017-Nov-17 16:29N 47°34' W 122°21'  
2017-Nov-14 19:13N 47°34' W 122°21'1 4.2
2017-Nov-14 19:00N 47°33' W 122°21'0 0.8
2017-Nov-14 18:30N 47°33' W 122°20'2 4.5
2017-Nov-14 18:00N 47°35' W 122°22'1 2.3
2017-Nov-14 17:30N 47°36' W 122°22'0 0.5
2017-Nov-14 17:00N 47°36' W 122°22'2 3.6
2017-Nov-14 16:30N 47°37' W 122°25'4 8.6
2017-Nov-14 16:00N 47°40' W 122°28'5 9.4
2017-Nov-14 15:30N 47°45' W 122°27'510.1
2017-Nov-14 15:00N 47°50' W 122°28'5 9.9
2017-Nov-14 14:30N 47°55' W 122°30'5 8.7
2017-Nov-14 13:55N 47°58' W 122°36'23 8.2
2017-Nov-14 11:10N 48°19' W 122°47'310.3
2017-Nov-14 10:54N 48°22' W 122°46'410.2
2017-Nov-14 10:30N 48°26' W 122°45'510.2
2017-Nov-14 10:00N 48°31' W 122°45'5 9.6
2017-Nov-14 09:30N 48°36' W 122°45'5 9.5
2017-Nov-14 09:00N 48°41' W 122°44'5 9.7
2017-Nov-14 08:30N 48°45' W 122°47'710.8
2017-Nov-14 07:54N 48°49' W 122°55'611.4
2017-Nov-14 07:20N 48°52' W 123°04'511.1
2017-Nov-14 06:56N 48°55' W 123°09'510.6
2017-Nov-14 06:28N 48°58' W 123°14'611.3
2017-Nov-14 05:59N 49°02' W 123°21'510.2
2017-Nov-14 05:30N 49°06' W 123°24'510.7
2017-Nov-14 05:00N 49°12' W 123°22'510.5
2017-Nov-14 04:30N 49°17' W 123°21'5 9.6
2017-Nov-14 04:00N 49°19' W 123°14'5 9.5
2017-Nov-14 03:30N 49°18' W 123°07'1 1.1
2017-Nov-14 03:00N 49°19' W 123°06'0 0.8
2017-Nov-14 02:31N 49°18' W 123°07'1 2.5
2017-Nov-14 02:00N 49°19' W 123°08'3 6.6
2017-Nov-14 01:30N 49°18' W 123°13'3 6.7
2017-Nov-14 01:00N 49°17' W 123°18'4 7.3
2017-Nov-14 00:30N 49°13' W 123°19'3 6.4
2017-Nov-13 23:59N 49°10' W 123°20'4 6.5
2017-Nov-13 23:21N 49°06' W 123°21'3 9.1
2017-Nov-13 22:58N 49°03' W 123°18'810.2
2017-Nov-13 22:10N 48°57' W 123°09'210.5
2017-Nov-13 22:00N 48°56' W 123°07'125 5.2
2017-Nov-12 21:56N 47°05' W 124°33'510.2
2017-Nov-12 21:28N 47°00' W 124°32'510.0
2017-Nov-12 20:56N 46°55' W 124°30'410.2
2017-Nov-12 20:30N 46°51' W 124°29'510.1
2017-Nov-12 20:00N 46°46' W 124°28'510.0
2017-Nov-12 19:31N 46°41' W 124°26'510.2
2017-Nov-12 19:00N 46°36' W 124°24'510.2
2017-Nov-12 18:30N 46°31' W 124°22'510.4
2017-Nov-12 18:00N 46°26' W 124°20'510.5
2017-Nov-12 17:30N 46°21' W 124°17'510.4
2017-Nov-12 17:00N 46°16' W 124°15'4 8.8
2017-Nov-12 16:31N 46°13' W 124°11'3 6.9
2017-Nov-12 16:00N 46°14' W 124°07'3 6.4
2017-Nov-12 15:30N 46°15' W 124°02'4 7.9
2017-Nov-12 15:00N 46°13' W 123°58'4 7.8
2017-Nov-12 14:30N 46°12' W 123°53'2 4.9
2017-Nov-12 14:01N 46°12' W 123°49'0 0.1
2017-Nov-12 13:31N 46°12' W 123°49'611.1
2017-Nov-12 13:00N 46°13' W 123°57'2 3.8
2017-Nov-12 12:31N 46°14' W 123°59'2 4.6
2017-Nov-12 12:00N 46°15' W 124°02'1 2.9
2017-Nov-12 11:30N 46°15' W 124°04'2 4.8
2017-Nov-12 11:00N 46°14' W 124°07'1 1.2
2017-Nov-12 10:31N 46°14' W 124°07'2 4.3
2017-Nov-12 10:00N 46°12' W 124°10'2 4.4
2017-Nov-12 09:30N 46°12' W 124°13'3 5.2
2017-Nov-12 09:00N 46°14' W 124°16'2 4.9
2017-Nov-12 08:30N 46°16' W 124°17'3 5.0
2017-Nov-12 07:56N 46°19' W 124°19'2 5.0
2017-Nov-12 07:30N 46°21' W 124°19'2 4.8
2017-Nov-12 07:00N 46°23' W 124°20'2 4.7
2017-Nov-12 06:30N 46°25' W 124°21'2 4.8
2017-Nov-12 06:00N 46°28' W 124°22'3 5.0
2017-Nov-12 05:30N 46°30' W 124°23'3 5.1
2017-Nov-12 05:00N 46°33' W 124°23'3 5.4
2017-Nov-12 04:30N 46°35' W 124°24'3 5.3
2017-Nov-12 04:00N 46°38' W 124°25'3 5.2
2017-Nov-12 03:30N 46°40' W 124°25'3 5.3
2017-Nov-12 03:00N 46°43' W 124°26'3 5.4
2017-Nov-12 02:30N 46°46' W 124°27'3 5.4
2017-Nov-12 02:00N 46°48' W 124°28'3 5.4
2017-Nov-12 01:30N 46°51' W 124°29'3 5.1
2017-Nov-12 01:00N 46°53' W 124°30'3 5.1
2017-Nov-12 00:30N 46°56' W 124°31'3 5.1
2017-Nov-12 00:00N 46°58' W 124°32'68 6.3
2017-Nov-11 13:06N 48°05' W 124°56'1 7.0
2017-Nov-11 13:00N 48°05' W 124°56'4 6.9
2017-Nov-11 12:21N 48°10' W 124°58'3 7.0
2017-Nov-11 11:59N 48°12' W 124°58'3 6.9
2017-Nov-11 11:29N 48°16' W 124°57'4 6.8
2017-Nov-11 10:58N 48°19' W 124°56'3 6.6
2017-Nov-11 10:30N 48°22' W 124°54'4 7.0
2017-Nov-11 10:00N 48°25' W 124°51'4 8.0
2017-Nov-11 09:30N 48°27' W 124°46'4 8.6
2017-Nov-11 09:00N 48°26' W 124°39'4 8.7
2017-Nov-11 08:30N 48°24' W 124°33'4 8.3
2017-Nov-11 08:00N 48°22' W 124°28'4 7.7
2017-Nov-11 07:29N 48°20' W 124°22'4 7.2
2017-Nov-11 06:59N 48°18' W 124°18'4 7.3
2017-Nov-11 06:30N 48°17' W 124°13'4 8.0
2017-Nov-11 06:00N 48°15' W 124°07'4 7.8
2017-Nov-11 05:30N 48°14' W 124°02'3 6.9
2017-Nov-11 05:00N 48°12' W 123°57'3 6.5
2017-Nov-11 04:30N 48°12' W 123°52'4 7.6
2017-Nov-11 04:00N 48°12' W 123°47'4 8.1
2017-Nov-11 03:30N 48°12' W 123°41'4 8.3
2017-Nov-11 03:00N 48°12' W 123°35'4 8.0
2017-Nov-11 02:30N 48°11' W 123°28'4 8.0
2017-Nov-11 02:00N 48°09' W 123°24'1 2.8
2017-Nov-11 01:30N 48°08' W 123°25'2 4.2
2017-Nov-11 01:00N 48°09' W 123°23'3 5.4
2017-Nov-11 00:30N 48°12' W 123°21'4 7.9
2017-Nov-11 00:00N 48°15' W 123°19'4 8.3
2017-Nov-10 23:30N 48°19' W 123°16'5 9.7
2017-Nov-10 23:00N 48°23' W 123°12'5 9.9
2017-Nov-10 22:30N 48°28' W 123°13'4 7.7
2017-Nov-10 22:00N 48°32' W 123°13'4 8.9
2017-Nov-10 21:31N 48°36' W 123°14'5 8.9
2017-Nov-10 20:59N 48°41' W 123°16'3 6.7
2017-Nov-10 20:30N 48°43' W 123°12'4 8.1
2017-Nov-10 20:00N 48°45' W 123°07'7 5.7
2017-Nov-10 18:51N 48°51' W 123°04'3 8.5
2017-Nov-10 18:30N 48°54' W 123°07'4 7.5
2017-Nov-10 18:00N 48°56' W 123°12'4 7.5
2017-Nov-10 17:28N 48°59' W 123°16'4 7.4
2017-Nov-10 17:00N 49°01' W 123°20'4 7.5
2017-Nov-10 16:29N 49°04' W 123°24'4 7.5
2017-Nov-10 15:58N 49°06' W 123°28'4 7.2
2017-Nov-10 15:25N 49°09' W 123°32'3 6.9
2017-Nov-10 15:00N 49°12' W 123°35'5 6.9
2017-Nov-10 14:16N 49°15' W 123°41'4 7.3
2017-Nov-10 13:45N 49°18' W 123°45'27 7.5
2017-Nov-10 10:12N 49°33' W 124°19'3 7.5
2017-Nov-10 09:45N 49°34' W 124°23'2 7.5
2017-Nov-10 09:30N 49°35' W 124°26'4 7.4
2017-Nov-10 09:00N 49°38' W 124°30'4 7.3
2017-Nov-10 08:29N 49°41' W 124°34'1 0.2
2017-Nov-10 01:24N 49°42' W 124°34'0 0.4
2017-Nov-10 00:57N 49°42' W 124°34'1 1.5
2017-Nov-10 00:27N 49°41' W 124°35'2 4.3
2017-Nov-10 00:00N 49°42' W 124°38'2 3.5
2017-Nov-09 23:29N 49°40' W 124°36'2 4.4
2017-Nov-09 23:00N 49°39' W 124°34'3 4.6
2017-Nov-09 22:27N 49°38' W 124°30'2 4.3
2017-Nov-09 22:00N 49°36' W 124°28'45 8.0
2017-Nov-09 16:21N 49°11' W 123°30'4 9.9
2017-Nov-09 15:58N 49°08' W 123°26'510.4
2017-Nov-09 15:30N 49°05' W 123°21'810.9
2017-Nov-09 14:46N 48°59' W 123°12'311.1
2017-Nov-09 14:30N 48°57' W 123°09'610.9
2017-Nov-09 14:00N 48°53' W 123°03'610.8
2017-Nov-09 13:24N 48°49' W 122°55'710.6
2017-Nov-09 12:43N 48°45' W 122°46'211.1
2017-Nov-09 12:30N 48°43' W 122°44'5 9.6
2017-Nov-09 12:00N 48°39' W 122°44'510.1
2017-Nov-09 11:30N 48°34' W 122°45'5 9.2
2017-Nov-09 10:59N 48°29' W 122°44'4 8.9
2017-Nov-09 10:30N 48°25' W 122°44'11 8.6
2017-Nov-09 09:12N 48°14' W 122°49'1311.9
2017-Nov-09 08:04N 48°03' W 122°38'113.7
2017-Nov-09 07:58N 48°01' W 122°37'612.8
2017-Nov-09 07:30N 47°57' W 122°32'611.2
2017-Nov-09 07:00N 47°52' W 122°28'611.3
2017-Nov-09 06:30N 47°46' W 122°26'510.9
2017-Nov-09 06:00N 47°41' W 122°27'5 9.7
2017-Nov-09 05:30N 47°37' W 122°23'2 3.1
2017-Nov-09 05:00N 47°35' W 122°22'0 0.9
2017-Nov-09 04:30N 47°35' W 122°22'1 2.1
2017-Nov-09 04:00N 47°34' W 122°21'1 1.3
2017-Nov-09 03:30N 47°35' W 122°22'2 4.2
2017-Nov-09 03:00N 47°36' W 122°23'3 6.4
2017-Nov-09 02:30N 47°38' W 122°27'3 5.6
2017-Nov-09 02:00N 47°41' W 122°28'3 6.1
2017-Nov-09 01:30N 47°44' W 122°27'3 6.2
2017-Nov-09 01:00N 47°47' W 122°27'3 6.6
2017-Nov-09 00:30N 47°50' W 122°28'3 6.7
2017-Nov-09 00:00N 47°54' W 122°30'3 6.6
2017-Nov-08 23:31N 47°56' W 122°32'3 6.3
2017-Nov-08 22:58N 47°59' W 122°36'24 5.1
2017-Nov-08 18:20N 48°22' W 122°46'2 6.8
2017-Nov-08 17:59N 48°24' W 122°45'3 6.6
2017-Nov-08 17:30N 48°27' W 122°45'3 5.6
2017-Nov-08 17:00N 48°30' W 122°44'2 5.0
2017-Nov-08 16:30N 48°32' W 122°45'2 4.2
2017-Nov-08 16:01N 48°34' W 122°45'2 3.1
2017-Nov-08 15:30N 48°36' W 122°45'1 2.0
2017-Nov-08 15:00N 48°37' W 122°45'1 2.3
2017-Nov-08 14:30N 48°38' W 122°44'2 3.3
2017-Nov-08 14:00N 48°39' W 122°44'2 3.4
2017-Nov-08 13:30N 48°41' W 122°44'2 3.9
2017-Nov-08 13:00N 48°43' W 122°45'11 5.8
2017-Nov-08 11:02N 48°50' W 122°59'0 5.5
2017-Nov-08 10:58N 48°50' W 122°59'4 6.1
2017-Nov-08 10:15N 48°53' W 123°05'2 5.9
2017-Nov-08 09:57N 48°54' W 123°07'3 6.4
2017-Nov-08 09:29N 48°56' W 123°10'3 6.8
2017-Nov-08 08:59N 48°58' W 123°14'4 7.1
2017-Nov-08 08:29N 49°00' W 123°18'4 7.1
2017-Nov-08 07:58N 49°03' W 123°23'3 6.8
2017-Nov-08 07:30N 49°05' W 123°26'3 6.8
2017-Nov-08 07:00N 49°07' W 123°30'3 6.6
2017-Nov-08 06:29N 49°10' W 123°33'5 6.6
2017-Nov-08 05:42N 49°14' W 123°38'19 6.5
2017-Nov-08 02:53N 49°25' W 124°00'14 6.1
2017-Nov-08 00:31N 49°33' W 124°19'0 6.2
2017-Nov-08 00:29N 49°33' W 124°19'4 6.5
2017-Nov-07 23:51N 49°35' W 124°25'  

Dump ship's entire track history